Aeroporto :
LOGIN :

Iscrizione | Disclaimer

   EN    FR    IT 

 










Sommario :    VFR   VFR Marginale   IFR   IFR Intensivo   IFR Molto Intensivo
Visibilità : 
Base nubi : 
>= 8 km
>= 3000ft
5 / 8 km
1000 / 3000 ft
1500m / 5 km
500 / 1000 ft
800 / 1500m
200 / 500 ft
< 800m
< 200 ft
Simboli :   Temporali  Nebbia  Neve Forte  Precipitazioni Forti  Vento > 20 kt
SIGMETs :   Varie  Temporali  Ghiacco  Turbolenza  Onda orograficha  Ceneri Vulcaniche






- Altitudine del aeroporto : 37 ft
- Codice IATA : OLB


LIEO - Olbia Costa Smeralda

ULTIMO METAR :
  • 151050Z 22005KT CAVOK 17/11 Q1017

METARs OBSOLETI :
  • 151020Z 23006KT CAVOK 16/10 Q1017
  • 150950Z 23005KT CAVOK 15/10 Q1017
  • 150920Z 23006KT CAVOK 15/10 Q1017
  • 150850Z 24010KT CAVOK 15/10 Q1017
  • 150820Z 25003KT 220V300 CAVOK 14/10 Q1017

TAF TAF LIEO
Valido dal 15 a 06 ore il 16 a 06 ore UTC


150500Z 1506/1606 24012KT CAVOK
BECMG 1515/1517 VRB05KT



MetMap, La meteo Aeronautica in un colpo d'occhio ! - Copyright ORBIFLY Dicembre 2007 - Disclaimer

ORBIFLY MET'MAP TEAM :

Programmazione e sviluppo : Alexandra Zaïnal
Concezione : Baudouin d'Aumeries
Aiuto per la programmazione : Marc-Olivier Méhu
Supporto tecnico e logistico : Manuel Goepfert
Aiuto per la traduzione : Arnaldo La Scala

Contatto : metmap@orbifly.com




FONTI E CREDITI :

   NOAA